sensor_id;sensor_type;location;lat;lon;timestamp;P1;durP1;ratioP1;P2;durP2;ratioP2
11927;SDS011;6023;47.070;15.126;2022-10-22T00:01:21;15.80;;;13.53;;
11927;SDS011;6023;47.070;15.126;2022-10-22T00:03:50;16.30;;;13.80;;
11927;SDS011;6023;47.070;15.126;2022-10-22T00:06:18;15.77;;;13.27;;
11927;SDS011;6023;47.070;15.126;2022-10-22T00:08:47;19.53;;;15.27;;
11927;SDS011;6023;47.070;15.126;2022-10-22T00:11:16;15.43;;;13.83;;
11927;SDS011;6023;47.070;15.126;2022-10-22T00:13:47;15.50;;;13.87;;
11927;SDS011;6023;47.070;15.126;2022-10-22T00:16:16;17.23;;;14.60;;
11927;SDS011;6023;47.070;15.126;2022-10-22T00:18:45;15.47;;;13.70;;
11927;SDS011;6023;47.070;15.126;2022-10-22T00:21:13;15.70;;;13.67;;
11927;SDS011;6023;47.070;15.126;2022-10-22T00:23:42;18.47;;;15.03;;
11927;SDS011;6023;47.070;15.126;2022-10-22T00:26:10;19.80;;;15.43;;
11927;SDS011;6023;47.070;15.126;2022-10-22T00:28:39;18.17;;;14.03;;
11927;SDS011;6023;47.070;15.126;2022-10-22T00:31:09;14.30;;;12.83;;
11927;SDS011;6023;47.070;15.126;2022-10-22T00:33:37;19.53;;;16.20;;
11927;SDS011;6023;47.070;15.126;2022-10-22T00:36:06;16.50;;;13.20;;
11927;SDS011;6023;47.070;15.126;2022-10-22T00:38:35;18.20;;;14.23;;
11927;SDS011;6023;47.070;15.126;2022-10-22T00:41:04;16.97;;;14.33;;
11927;SDS011;6023;47.070;15.126;2022-10-22T00:43:33;17.37;;;15.17;;
11927;SDS011;6023;47.070;15.126;2022-10-22T00:46:20;19.27;;;15.63;;
11927;SDS011;6023;47.070;15.126;2022-10-22T00:48:49;20.60;;;15.73;;
11927;SDS011;6023;47.070;15.126;2022-10-22T00:51:18;18.33;;;15.27;;
11927;SDS011;6023;47.070;15.126;2022-10-22T00:53:48;20.57;;;15.10;;
11927;SDS011;6023;47.070;15.126;2022-10-22T00:56:19;15.73;;;13.57;;
11927;SDS011;6023;47.070;15.126;2022-10-22T00:58:48;14.60;;;12.67;;
11927;SDS011;6023;47.070;15.126;2022-10-22T01:01:21;14.90;;;12.77;;
11927;SDS011;6023;47.070;15.126;2022-10-22T01:03:52;15.50;;;13.40;;
11927;SDS011;6023;47.070;15.126;2022-10-22T01:06:22;16.47;;;13.70;;
11927;SDS011;6023;47.070;15.126;2022-10-22T01:08:53;17.83;;;13.30;;
11927;SDS011;6023;47.070;15.126;2022-10-22T01:11:29;16.20;;;13.63;;
11927;SDS011;6023;47.070;15.126;2022-10-22T01:14:09;16.33;;;13.27;;
11927;SDS011;6023;47.070;15.126;2022-10-22T01:16:44;16.23;;;12.83;;
11927;SDS011;6023;47.070;15.126;2022-10-22T01:19:34;15.60;;;13.10;;
11927;SDS011;6023;47.070;15.126;2022-10-22T01:22:08;19.07;;;14.80;;
11927;SDS011;6023;47.070;15.126;2022-10-22T01:24:47;14.17;;;12.37;;
11927;SDS011;6023;47.070;15.126;2022-10-22T01:27:23;13.77;;;11.67;;
11927;SDS011;6023;47.070;15.126;2022-10-22T01:29:59;16.43;;;13.40;;
11927;SDS011;6023;47.070;15.126;2022-10-22T01:32:30;17.00;;;13.73;;
11927;SDS011;6023;47.070;15.126;2022-10-22T01:35:03;15.13;;;12.37;;
11927;SDS011;6023;47.070;15.126;2022-10-22T01:37:36;17.00;;;14.17;;
11927;SDS011;6023;47.070;15.126;2022-10-22T01:40:07;16.33;;;13.43;;
11927;SDS011;6023;47.070;15.126;2022-10-22T01:42:37;15.57;;;12.33;;
11927;SDS011;6023;47.070;15.126;2022-10-22T01:45:11;15.63;;;12.73;;
11927;SDS011;6023;47.070;15.126;2022-10-22T01:47:42;15.00;;;12.53;;
11927;SDS011;6023;47.070;15.126;2022-10-22T01:50:31;17.10;;;12.90;;
11927;SDS011;6023;47.070;15.126;2022-10-22T01:53:12;19.50;;;13.80;;
11927;SDS011;6023;47.070;15.126;2022-10-22T01:55:52;15.10;;;12.77;;
11927;SDS011;6023;47.070;15.126;2022-10-22T01:58:28;16.57;;;13.90;;
11927;SDS011;6023;47.070;15.126;2022-10-22T02:01:08;14.00;;;12.30;;
11927;SDS011;6023;47.070;15.126;2022-10-22T02:03:44;15.60;;;12.60;;
11927;SDS011;6023;47.070;15.126;2022-10-22T02:06:16;13.93;;;12.53;;
11927;SDS011;6023;47.070;15.126;2022-10-22T02:08:46;16.17;;;13.20;;
11927;SDS011;6023;47.070;15.126;2022-10-22T02:11:16;16.13;;;13.20;;
11927;SDS011;6023;47.070;15.126;2022-10-22T02:13:45;14.37;;;12.67;;
11927;SDS011;6023;47.070;15.126;2022-10-22T02:16:20;17.13;;;13.07;;
11927;SDS011;6023;47.070;15.126;2022-10-22T02:18:53;13.40;;;11.93;;
11927;SDS011;6023;47.070;15.126;2022-10-22T02:21:23;13.93;;;11.70;;
11927;SDS011;6023;47.070;15.126;2022-10-22T02:23:51;15.53;;;12.30;;
11927;SDS011;6023;47.070;15.126;2022-10-22T02:26:20;17.17;;;12.07;;
11927;SDS011;6023;47.070;15.126;2022-10-22T02:28:54;12.50;;;11.03;;
11927;SDS011;6023;47.070;15.126;2022-10-22T02:31:27;14.63;;;11.47;;
11927;SDS011;6023;47.070;15.126;2022-10-22T02:33:57;13.47;;;11.47;;
11927;SDS011;6023;47.070;15.126;2022-10-22T02:36:28;12.67;;;10.77;;
11927;SDS011;6023;47.070;15.126;2022-10-22T02:38:57;13.57;;;10.87;;
11927;SDS011;6023;47.070;15.126;2022-10-22T02:41:26;15.47;;;12.00;;
11927;SDS011;6023;47.070;15.126;2022-10-22T02:43:55;13.93;;;10.63;;
11927;SDS011;6023;47.070;15.126;2022-10-22T02:46:23;15.80;;;12.27;;
11927;SDS011;6023;47.070;15.126;2022-10-22T02:48:54;14.13;;;11.37;;
11927;SDS011;6023;47.070;15.126;2022-10-22T02:51:22;13.93;;;11.67;;
11927;SDS011;6023;47.070;15.126;2022-10-22T02:53:51;15.63;;;11.57;;
11927;SDS011;6023;47.070;15.126;2022-10-22T02:56:19;12.03;;;10.73;;
11927;SDS011;6023;47.070;15.126;2022-10-22T02:58:48;16.77;;;11.73;;
11927;SDS011;6023;47.070;15.126;2022-10-22T03:01:16;15.10;;;13.17;;
11927;SDS011;6023;47.070;15.126;2022-10-22T03:03:45;13.77;;;12.10;;
11927;SDS011;6023;47.070;15.126;2022-10-22T03:06:14;15.87;;;12.20;;
11927;SDS011;6023;47.070;15.126;2022-10-22T03:08:43;14.17;;;11.90;;
11927;SDS011;6023;47.070;15.126;2022-10-22T03:11:13;15.03;;;11.67;;
11927;SDS011;6023;47.070;15.126;2022-10-22T03:13:41;16.53;;;13.27;;
11927;SDS011;6023;47.070;15.126;2022-10-22T03:16:10;20.53;;;15.40;;
11927;SDS011;6023;47.070;15.126;2022-10-22T03:18:38;20.70;;;14.63;;
11927;SDS011;6023;47.070;15.126;2022-10-22T03:21:08;15.53;;;12.97;;
11927;SDS011;6023;47.070;15.126;2022-10-22T03:23:59;15.83;;;12.57;;
11927;SDS011;6023;47.070;15.126;2022-10-22T03:26:49;17.63;;;13.40;;
11927;SDS011;6023;47.070;15.126;2022-10-22T03:29:38;14.90;;;13.13;;
11927;SDS011;6023;47.070;15.126;2022-10-22T03:32:27;17.10;;;13.90;;
11927;SDS011;6023;47.070;15.126;2022-10-22T03:35:15;19.77;;;14.10;;
11927;SDS011;6023;47.070;15.126;2022-10-22T03:38:04;17.13;;;13.47;;
11927;SDS011;6023;47.070;15.126;2022-10-22T03:40:53;16.10;;;13.67;;
11927;SDS011;6023;47.070;15.126;2022-10-22T03:43:42;16.47;;;13.97;;
11927;SDS011;6023;47.070;15.126;2022-10-22T03:46:35;18.27;;;14.93;;
11927;SDS011;6023;47.070;15.126;2022-10-22T03:49:23;17.50;;;14.83;;
11927;SDS011;6023;47.070;15.126;2022-10-22T03:52:13;17.47;;;14.53;;
11927;SDS011;6023;47.070;15.126;2022-10-22T03:55:01;15.57;;;13.60;;
11927;SDS011;6023;47.070;15.126;2022-10-22T03:57:52;16.37;;;14.33;;
11927;SDS011;6023;47.070;15.126;2022-10-22T04:00:40;19.53;;;14.40;;
11927;SDS011;6023;47.070;15.126;2022-10-22T04:03:29;15.90;;;13.43;;
11927;SDS011;6023;47.070;15.126;2022-10-22T04:06:17;16.53;;;12.97;;
11927;SDS011;6023;47.070;15.126;2022-10-22T04:09:06;20.40;;;14.73;;
11927;SDS011;6023;47.070;15.126;2022-10-22T04:11:54;18.63;;;14.80;;
11927;SDS011;6023;47.070;15.126;2022-10-22T04:14:44;20.20;;;15.27;;
11927;SDS011;6023;47.070;15.126;2022-10-22T04:17:33;16.03;;;13.77;;
11927;SDS011;6023;47.070;15.126;2022-10-22T04:20:22;16.20;;;12.30;;
11927;SDS011;6023;47.070;15.126;2022-10-22T04:23:10;14.37;;;11.20;;
11927;SDS011;6023;47.070;15.126;2022-10-22T04:25:59;15.07;;;12.60;;
11927;SDS011;6023;47.070;15.126;2022-10-22T04:28:48;14.63;;;11.60;;
11927;SDS011;6023;47.070;15.126;2022-10-22T04:31:39;15.97;;;11.83;;
11927;SDS011;6023;47.070;15.126;2022-10-22T04:34:28;12.83;;;11.47;;
11927;SDS011;6023;47.070;15.126;2022-10-22T04:37:16;14.70;;;11.20;;
11927;SDS011;6023;47.070;15.126;2022-10-22T04:40:05;15.30;;;12.03;;
11927;SDS011;6023;47.070;15.126;2022-10-22T04:42:55;12.53;;;9.17;;
11927;SDS011;6023;47.070;15.126;2022-10-22T04:45:43;13.57;;;9.70;;
11927;SDS011;6023;47.070;15.126;2022-10-22T04:48:33;12.43;;;9.97;;
11927;SDS011;6023;47.070;15.126;2022-10-22T04:51:22;12.37;;;9.70;;
11927;SDS011;6023;47.070;15.126;2022-10-22T04:54:11;13.60;;;10.33;;
11927;SDS011;6023;47.070;15.126;2022-10-22T04:57:00;14.13;;;10.50;;
11927;SDS011;6023;47.070;15.126;2022-10-22T04:59:49;13.80;;;9.90;;
11927;SDS011;6023;47.070;15.126;2022-10-22T05:02:37;16.97;;;10.57;;
11927;SDS011;6023;47.070;15.126;2022-10-22T05:05:27;14.03;;;10.63;;
11927;SDS011;6023;47.070;15.126;2022-10-22T05:08:15;12.07;;;10.60;;
11927;SDS011;6023;47.070;15.126;2022-10-22T05:11:09;13.83;;;10.27;;
11927;SDS011;6023;47.070;15.126;2022-10-22T05:13:59;13.00;;;10.77;;
11927;SDS011;6023;47.070;15.126;2022-10-22T05:16:48;12.50;;;9.97;;
11927;SDS011;6023;47.070;15.126;2022-10-22T05:19:37;13.03;;;10.70;;
11927;SDS011;6023;47.070;15.126;2022-10-22T05:22:27;13.33;;;11.30;;
11927;SDS011;6023;47.070;15.126;2022-10-22T05:25:15;13.93;;;11.97;;
11927;SDS011;6023;47.070;15.126;2022-10-22T05:28:04;12.80;;;10.33;;
11927;SDS011;6023;47.070;15.126;2022-10-22T05:30:52;15.20;;;11.43;;
11927;SDS011;6023;47.070;15.126;2022-10-22T05:33:41;19.10;;;13.43;;
11927;SDS011;6023;47.070;15.126;2022-10-22T05:36:30;14.80;;;12.57;;
11927;SDS011;6023;47.070;15.126;2022-10-22T05:39:20;14.97;;;11.97;;
11927;SDS011;6023;47.070;15.126;2022-10-22T05:42:08;21.90;;;18.47;;
11927;SDS011;6023;47.070;15.126;2022-10-22T05:44:57;16.37;;;12.70;;
11927;SDS011;6023;47.070;15.126;2022-10-22T05:47:45;16.30;;;11.87;;
11927;SDS011;6023;47.070;15.126;2022-10-22T05:50:34;13.33;;;11.30;;
11927;SDS011;6023;47.070;15.126;2022-10-22T05:53:23;13.60;;;11.50;;
11927;SDS011;6023;47.070;15.126;2022-10-22T05:56:13;12.70;;;10.70;;
11927;SDS011;6023;47.070;15.126;2022-10-22T05:59:02;15.90;;;12.00;;
11927;SDS011;6023;47.070;15.126;2022-10-22T06:01:51;15.87;;;10.83;;
11927;SDS011;6023;47.070;15.126;2022-10-22T06:04:39;23.37;;;17.37;;
11927;SDS011;6023;47.070;15.126;2022-10-22T06:07:28;17.00;;;13.50;;
11927;SDS011;6023;47.070;15.126;2022-10-22T06:10:19;17.97;;;13.97;;
11927;SDS011;6023;47.070;15.126;2022-10-22T06:13:09;15.73;;;11.77;;
11927;SDS011;6023;47.070;15.126;2022-10-22T06:15:57;16.00;;;11.93;;
11927;SDS011;6023;47.070;15.126;2022-10-22T06:18:46;15.53;;;12.17;;
11927;SDS011;6023;47.070;15.126;2022-10-22T06:21:34;16.40;;;12.07;;
11927;SDS011;6023;47.070;15.126;2022-10-22T06:24:23;17.73;;;11.30;;
11927;SDS011;6023;47.070;15.126;2022-10-22T06:27:11;13.20;;;11.23;;
11927;SDS011;6023;47.070;15.126;2022-10-22T06:30:01;15.20;;;12.10;;
11927;SDS011;6023;47.070;15.126;2022-10-22T06:32:50;15.67;;;13.00;;
11927;SDS011;6023;47.070;15.126;2022-10-22T06:35:39;18.57;;;15.97;;
11927;SDS011;6023;47.070;15.126;2022-10-22T06:38:27;19.33;;;15.33;;
11927;SDS011;6023;47.070;15.126;2022-10-22T06:41:16;16.57;;;14.87;;
11927;SDS011;6023;47.070;15.126;2022-10-22T06:44:04;22.40;;;18.27;;
11927;SDS011;6023;47.070;15.126;2022-10-22T06:46:54;19.90;;;17.10;;
11927;SDS011;6023;47.070;15.126;2022-10-22T06:49:42;19.43;;;14.97;;
11927;SDS011;6023;47.070;15.126;2022-10-22T06:52:31;22.43;;;19.77;;
11927;SDS011;6023;47.070;15.126;2022-10-22T06:55:19;18.50;;;12.33;;
11927;SDS011;6023;47.070;15.126;2022-10-22T06:58:08;20.13;;;16.00;;
11927;SDS011;6023;47.070;15.126;2022-10-22T07:01:00;38.37;;;30.90;;
11927;SDS011;6023;47.070;15.126;2022-10-22T07:03:51;28.77;;;24.63;;
11927;SDS011;6023;47.070;15.126;2022-10-22T07:06:40;17.30;;;14.83;;
11927;SDS011;6023;47.070;15.126;2022-10-22T07:09:28;13.10;;;11.70;;
11927;SDS011;6023;47.070;15.126;2022-10-22T07:12:16;13.77;;;11.97;;
11927;SDS011;6023;47.070;15.126;2022-10-22T07:15:05;15.67;;;12.40;;
11927;SDS011;6023;47.070;15.126;2022-10-22T07:17:54;14.80;;;11.30;;
11927;SDS011;6023;47.070;15.126;2022-10-22T07:20:44;12.47;;;10.97;;
11927;SDS011;6023;47.070;15.126;2022-10-22T07:23:33;15.00;;;11.20;;
11927;SDS011;6023;47.070;15.126;2022-10-22T07:26:22;16.27;;;12.83;;
11927;SDS011;6023;47.070;15.126;2022-10-22T07:29:12;13.27;;;11.47;;
11927;SDS011;6023;47.070;15.126;2022-10-22T07:32:02;16.83;;;14.27;;
11927;SDS011;6023;47.070;15.126;2022-10-22T07:34:50;28.03;;;25.10;;
11927;SDS011;6023;47.070;15.126;2022-10-22T07:37:40;17.17;;;13.37;;
11927;SDS011;6023;47.070;15.126;2022-10-22T07:40:29;14.90;;;12.40;;
11927;SDS011;6023;47.070;15.126;2022-10-22T07:43:17;16.43;;;13.00;;
11927;SDS011;6023;47.070;15.126;2022-10-22T07:46:06;18.13;;;13.67;;
11927;SDS011;6023;47.070;15.126;2022-10-22T07:48:55;21.33;;;19.13;;
11927;SDS011;6023;47.070;15.126;2022-10-22T07:51:43;21.17;;;14.60;;
11927;SDS011;6023;47.070;15.126;2022-10-22T07:54:33;17.77;;;12.70;;
11927;SDS011;6023;47.070;15.126;2022-10-22T07:57:22;18.80;;;14.33;;
11927;SDS011;6023;47.070;15.126;2022-10-22T08:00:10;17.90;;;14.27;;
11927;SDS011;6023;47.070;15.126;2022-10-22T08:02:59;21.47;;;16.53;;
11927;SDS011;6023;47.070;15.126;2022-10-22T08:05:48;20.10;;;16.77;;
11927;SDS011;6023;47.070;15.126;2022-10-22T08:08:36;16.40;;;13.47;;
11927;SDS011;6023;47.070;15.126;2022-10-22T08:11:26;18.67;;;13.37;;
11927;SDS011;6023;47.070;15.126;2022-10-22T08:14:15;16.20;;;12.67;;
11927;SDS011;6023;47.070;15.126;2022-10-22T08:17:03;16.80;;;14.70;;
11927;SDS011;6023;47.070;15.126;2022-10-22T08:19:51;16.70;;;13.93;;
11927;SDS011;6023;47.070;15.126;2022-10-22T08:22:40;23.30;;;15.37;;
11927;SDS011;6023;47.070;15.126;2022-10-22T08:25:28;17.13;;;13.90;;
11927;SDS011;6023;47.070;15.126;2022-10-22T08:28:18;21.57;;;16.20;;
11927;SDS011;6023;47.070;15.126;2022-10-22T08:31:08;15.47;;;13.80;;
11927;SDS011;6023;47.070;15.126;2022-10-22T08:33:56;15.43;;;13.13;;
11927;SDS011;6023;47.070;15.126;2022-10-22T08:36:45;15.77;;;12.80;;
11927;SDS011;6023;47.070;15.126;2022-10-22T08:39:33;15.30;;;12.67;;
11927;SDS011;6023;47.070;15.126;2022-10-22T08:42:32;17.30;;;14.73;;
11927;SDS011;6023;47.070;15.126;2022-10-22T08:45:33;47.57;;;38.27;;
11927;SDS011;6023;47.070;15.126;2022-10-22T08:48:30;47.80;;;36.90;;
11927;SDS011;6023;47.070;15.126;2022-10-22T08:51:29;45.40;;;35.40;;
11927;SDS011;6023;47.070;15.126;2022-10-22T08:54:24;31.70;;;25.03;;
11927;SDS011;6023;47.070;15.126;2022-10-22T08:57:23;46.60;;;35.53;;
11927;SDS011;6023;47.070;15.126;2022-10-22T09:00:21;32.33;;;24.73;;
11927;SDS011;6023;47.070;15.126;2022-10-22T09:03:25;21.67;;;19.07;;
11927;SDS011;6023;47.070;15.126;2022-10-22T09:06:21;22.33;;;17.73;;
11927;SDS011;6023;47.070;15.126;2022-10-22T09:09:13;20.17;;;16.63;;
11927;SDS011;6023;47.070;15.126;2022-10-22T09:12:03;29.93;;;24.13;;
11927;SDS011;6023;47.070;15.126;2022-10-22T09:14:52;29.50;;;25.33;;
11927;SDS011;6023;47.070;15.126;2022-10-22T09:17:44;20.77;;;17.97;;
11927;SDS011;6023;47.070;15.126;2022-10-22T09:20:43;20.53;;;16.83;;
11927;SDS011;6023;47.070;15.126;2022-10-22T09:23:36;21.10;;;17.43;;
11927;SDS011;6023;47.070;15.126;2022-10-22T09:26:26;24.37;;;20.07;;
11927;SDS011;6023;47.070;15.126;2022-10-22T09:29:16;51.87;;;38.30;;
11927;SDS011;6023;47.070;15.126;2022-10-22T09:32:06;23.70;;;19.70;;
11927;SDS011;6023;47.070;15.126;2022-10-22T09:34:55;19.33;;;17.20;;
11927;SDS011;6023;47.070;15.126;2022-10-22T09:37:48;19.10;;;17.03;;
11927;SDS011;6023;47.070;15.126;2022-10-22T09:40:42;20.80;;;18.17;;
11927;SDS011;6023;47.070;15.126;2022-10-22T09:43:32;19.63;;;17.17;;
11927;SDS011;6023;47.070;15.126;2022-10-22T09:46:22;19.47;;;17.47;;
11927;SDS011;6023;47.070;15.126;2022-10-22T09:49:12;19.27;;;16.90;;
11927;SDS011;6023;47.070;15.126;2022-10-22T09:52:01;19.63;;;17.50;;
11927;SDS011;6023;47.070;15.126;2022-10-22T09:54:51;20.17;;;17.27;;
11927;SDS011;6023;47.070;15.126;2022-10-22T09:57:40;19.03;;;16.90;;
11927;SDS011;6023;47.070;15.126;2022-10-22T10:00:30;86.47;;;60.73;;
11927;SDS011;6023;47.070;15.126;2022-10-22T10:03:20;44.57;;;35.87;;
11927;SDS011;6023;47.070;15.126;2022-10-22T10:06:10;30.27;;;25.23;;
11927;SDS011;6023;47.070;15.126;2022-10-22T10:08:59;26.13;;;22.37;;
11927;SDS011;6023;47.070;15.126;2022-10-22T10:11:55;31.50;;;25.73;;
11927;SDS011;6023;47.070;15.126;2022-10-22T10:14:51;24.63;;;20.10;;
11927;SDS011;6023;47.070;15.126;2022-10-22T10:17:47;47.93;;;36.13;;
11927;SDS011;6023;47.070;15.126;2022-10-22T10:20:48;39.90;;;30.70;;
11927;SDS011;6023;47.070;15.126;2022-10-22T10:23:43;24.47;;;21.23;;
11927;SDS011;6023;47.070;15.126;2022-10-22T10:26:36;24.27;;;20.43;;
11927;SDS011;6023;47.070;15.126;2022-10-22T10:29:34;21.67;;;18.20;;
11927;SDS011;6023;47.070;15.126;2022-10-22T10:32:31;20.97;;;17.50;;
11927;SDS011;6023;47.070;15.126;2022-10-22T10:35:30;20.93;;;17.43;;
11927;SDS011;6023;47.070;15.126;2022-10-22T10:38:28;20.67;;;18.40;;
11927;SDS011;6023;47.070;15.126;2022-10-22T10:41:23;48.43;;;43.23;;
11927;SDS011;6023;47.070;15.126;2022-10-22T10:44:23;47.10;;;42.10;;
11927;SDS011;6023;47.070;15.126;2022-10-22T10:47:28;28.33;;;24.97;;
11927;SDS011;6023;47.070;15.126;2022-10-22T10:50:34;23.77;;;20.07;;
11927;SDS011;6023;47.070;15.126;2022-10-22T10:53:34;25.13;;;21.00;;
11927;SDS011;6023;47.070;15.126;2022-10-22T10:56:34;24.20;;;20.20;;
11927;SDS011;6023;47.070;15.126;2022-10-22T10:59:31;22.23;;;19.97;;
11927;SDS011;6023;47.070;15.126;2022-10-22T11:02:39;25.33;;;22.47;;
11927;SDS011;6023;47.070;15.126;2022-10-22T11:05:47;43.13;;;36.77;;
11927;SDS011;6023;47.070;15.126;2022-10-22T11:08:41;33.53;;;28.87;;
11927;SDS011;6023;47.070;15.126;2022-10-22T11:11:33;26.93;;;23.40;;
11927;SDS011;6023;47.070;15.126;2022-10-22T11:14:26;26.77;;;23.87;;
11927;SDS011;6023;47.070;15.126;2022-10-22T11:17:20;30.70;;;27.37;;
11927;SDS011;6023;47.070;15.126;2022-10-22T11:20:12;25.97;;;23.17;;
11927;SDS011;6023;47.070;15.126;2022-10-22T11:23:04;22.87;;;20.23;;
11927;SDS011;6023;47.070;15.126;2022-10-22T11:26:12;45.27;;;30.60;;
11927;SDS011;6023;47.070;15.126;2022-10-22T11:29:08;41.13;;;34.93;;
11927;SDS011;6023;47.070;15.126;2022-10-22T11:32:00;25.90;;;22.07;;
11927;SDS011;6023;47.070;15.126;2022-10-22T11:34:51;25.07;;;20.43;;
11927;SDS011;6023;47.070;15.126;2022-10-22T11:37:41;20.40;;;17.47;;
11927;SDS011;6023;47.070;15.126;2022-10-22T11:40:32;20.07;;;17.97;;
11927;SDS011;6023;47.070;15.126;2022-10-22T11:43:25;21.70;;;16.90;;
11927;SDS011;6023;47.070;15.126;2022-10-22T11:46:24;40.63;;;35.10;;
11927;SDS011;6023;47.070;15.126;2022-10-22T11:49:17;24.23;;;21.63;;
11927;SDS011;6023;47.070;15.126;2022-10-22T11:52:24;23.90;;;19.47;;
11927;SDS011;6023;47.070;15.126;2022-10-22T11:55:27;34.13;;;30.27;;
11927;SDS011;6023;47.070;15.126;2022-10-22T11:58:30;22.30;;;18.43;;
11927;SDS011;6023;47.070;15.126;2022-10-22T12:01:22;19.17;;;17.13;;
11927;SDS011;6023;47.070;15.126;2022-10-22T12:04:18;20.53;;;18.33;;
11927;SDS011;6023;47.070;15.126;2022-10-22T12:10:20;17.37;;;15.63;;
11927;SDS011;6023;47.070;15.126;2022-10-22T12:13:12;17.00;;;14.97;;
11927;SDS011;6023;47.070;15.126;2022-10-22T12:16:05;18.17;;;15.33;;
11927;SDS011;6023;47.070;15.126;2022-10-22T12:19:00;19.00;;;17.00;;
11927;SDS011;6023;47.070;15.126;2022-10-22T12:21:52;16.53;;;14.73;;
11927;SDS011;6023;47.070;15.126;2022-10-22T12:24:44;16.60;;;14.00;;
11927;SDS011;6023;47.070;15.126;2022-10-22T12:27:35;16.70;;;13.10;;
11927;SDS011;6023;47.070;15.126;2022-10-22T12:30:25;17.57;;;15.57;;
11927;SDS011;6023;47.070;15.126;2022-10-22T12:33:18;14.17;;;12.60;;
11927;SDS011;6023;47.070;15.126;2022-10-22T12:36:13;9.57;;;7.97;;
11927;SDS011;6023;47.070;15.126;2022-10-22T12:39:07;10.07;;;8.03;;
11927;SDS011;6023;47.070;15.126;2022-10-22T12:41:59;10.90;;;9.30;;
11927;SDS011;6023;47.070;15.126;2022-10-22T12:44:48;9.90;;;8.77;;
11927;SDS011;6023;47.070;15.126;2022-10-22T12:47:44;9.93;;;7.90;;
11927;SDS011;6023;47.070;15.126;2022-10-22T12:50:34;9.63;;;8.60;;
11927;SDS011;6023;47.070;15.126;2022-10-22T12:53:26;25.73;;;23.10;;
11927;SDS011;6023;47.070;15.126;2022-10-22T12:56:17;16.03;;;14.40;;
11927;SDS011;6023;47.070;15.126;2022-10-22T12:59:12;22.40;;;19.97;;
11927;SDS011;6023;47.070;15.126;2022-10-22T13:02:10;14.73;;;12.97;;
11927;SDS011;6023;47.070;15.126;2022-10-22T13:05:15;13.10;;;9.93;;
11927;SDS011;6023;47.070;15.126;2022-10-22T13:08:08;13.60;;;12.20;;
11927;SDS011;6023;47.070;15.126;2022-10-22T13:11:05;14.00;;;11.67;;
11927;SDS011;6023;47.070;15.126;2022-10-22T13:14:00;12.50;;;8.53;;
11927;SDS011;6023;47.070;15.126;2022-10-22T13:17:06;7.53;;;6.20;;
11927;SDS011;6023;47.070;15.126;2022-10-22T13:20:00;7.63;;;5.73;;
11927;SDS011;6023;47.070;15.126;2022-10-22T13:22:51;7.00;;;5.50;;
11927;SDS011;6023;47.070;15.126;2022-10-22T13:25:41;11.30;;;7.60;;
11927;SDS011;6023;47.070;15.126;2022-10-22T13:28:29;33.17;;;20.90;;
11927;SDS011;6023;47.070;15.126;2022-10-22T13:31:20;47.37;;;36.13;;
11927;SDS011;6023;47.070;15.126;2022-10-22T13:34:12;69.43;;;44.47;;
11927;SDS011;6023;47.070;15.126;2022-10-22T13:37:04;59.30;;;40.90;;
11927;SDS011;6023;47.070;15.126;2022-10-22T13:39:54;47.80;;;33.67;;
11927;SDS011;6023;47.070;15.126;2022-10-22T13:42:43;28.20;;;20.30;;
11927;SDS011;6023;47.070;15.126;2022-10-22T13:45:31;12.93;;;9.63;;
11927;SDS011;6023;47.070;15.126;2022-10-22T13:48:20;11.23;;;8.37;;
11927;SDS011;6023;47.070;15.126;2022-10-22T13:51:14;9.70;;;8.07;;
11927;SDS011;6023;47.070;15.126;2022-10-22T13:54:03;8.77;;;7.87;;
11927;SDS011;6023;47.070;15.126;2022-10-22T13:56:59;14.57;;;12.70;;
11927;SDS011;6023;47.070;15.126;2022-10-22T13:59:48;19.40;;;16.17;;
11927;SDS011;6023;47.070;15.126;2022-10-22T14:02:36;12.87;;;9.90;;
11927;SDS011;6023;47.070;15.126;2022-10-22T14:05:25;12.27;;;9.67;;
11927;SDS011;6023;47.070;15.126;2022-10-22T14:08:17;11.37;;;9.30;;
11927;SDS011;6023;47.070;15.126;2022-10-22T14:11:07;8.57;;;7.10;;
11927;SDS011;6023;47.070;15.126;2022-10-22T14:13:56;7.73;;;6.43;;
11927;SDS011;6023;47.070;15.126;2022-10-22T14:16:45;7.90;;;7.10;;
11927;SDS011;6023;47.070;15.126;2022-10-22T14:19:33;8.30;;;7.50;;
11927;SDS011;6023;47.070;15.126;2022-10-22T14:22:22;10.83;;;8.50;;
11927;SDS011;6023;47.070;15.126;2022-10-22T14:25:14;7.70;;;6.80;;
11927;SDS011;6023;47.070;15.126;2022-10-22T14:28:03;7.80;;;6.90;;
11927;SDS011;6023;47.070;15.126;2022-10-22T14:30:52;10.07;;;8.63;;
11927;SDS011;6023;47.070;15.126;2022-10-22T14:33:40;14.40;;;12.93;;
11927;SDS011;6023;47.070;15.126;2022-10-22T14:36:29;16.10;;;14.50;;
11927;SDS011;6023;47.070;15.126;2022-10-22T14:39:17;13.37;;;11.37;;
11927;SDS011;6023;47.070;15.126;2022-10-22T14:42:09;9.20;;;8.30;;
11927;SDS011;6023;47.070;15.126;2022-10-22T14:44:58;9.33;;;8.43;;
11927;SDS011;6023;47.070;15.126;2022-10-22T14:47:46;11.73;;;9.03;;
11927;SDS011;6023;47.070;15.126;2022-10-22T14:50:34;10.37;;;9.10;;
11927;SDS011;6023;47.070;15.126;2022-10-22T14:53:23;12.20;;;9.13;;
11927;SDS011;6023;47.070;15.126;2022-10-22T14:56:11;12.20;;;10.90;;
11927;SDS011;6023;47.070;15.126;2022-10-22T14:59:02;16.37;;;13.37;;
11927;SDS011;6023;47.070;15.126;2022-10-22T15:01:51;17.43;;;14.80;;
11927;SDS011;6023;47.070;15.126;2022-10-22T15:04:39;16.53;;;13.23;;
11927;SDS011;6023;47.070;15.126;2022-10-22T15:07:27;12.47;;;9.60;;
11927;SDS011;6023;47.070;15.126;2022-10-22T15:10:16;9.40;;;7.67;;
11927;SDS011;6023;47.070;15.126;2022-10-22T15:13:04;9.27;;;7.97;;
11927;SDS011;6023;47.070;15.126;2022-10-22T15:15:54;10.63;;;9.13;;
11927;SDS011;6023;47.070;15.126;2022-10-22T15:18:43;12.07;;;10.77;;
11927;SDS011;6023;47.070;15.126;2022-10-22T15:21:31;9.93;;;8.93;;
11927;SDS011;6023;47.070;15.126;2022-10-22T15:24:20;11.63;;;10.10;;
11927;SDS011;6023;47.070;15.126;2022-10-22T15:27:08;9.37;;;7.73;;
11927;SDS011;6023;47.070;15.126;2022-10-22T15:29:59;7.00;;;6.27;;
11927;SDS011;6023;47.070;15.126;2022-10-22T15:32:50;8.77;;;6.70;;
11927;SDS011;6023;47.070;15.126;2022-10-22T15:35:38;10.17;;;8.67;;
11927;SDS011;6023;47.070;15.126;2022-10-22T15:38:27;17.33;;;14.53;;
11927;SDS011;6023;47.070;15.126;2022-10-22T15:41:20;10.20;;;9.10;;
11927;SDS011;6023;47.070;15.126;2022-10-22T15:44:10;10.10;;;8.70;;
11927;SDS011;6023;47.070;15.126;2022-10-22T15:47:02;13.17;;;11.77;;
11927;SDS011;6023;47.070;15.126;2022-10-22T15:49:53;9.97;;;9.07;;
11927;SDS011;6023;47.070;15.126;2022-10-22T15:52:42;10.43;;;8.97;;
11927;SDS011;6023;47.070;15.126;2022-10-22T15:55:30;9.70;;;8.47;;
11927;SDS011;6023;47.070;15.126;2022-10-22T15:58:18;13.20;;;11.17;;
11927;SDS011;6023;47.070;15.126;2022-10-22T16:01:07;10.30;;;9.03;;
11927;SDS011;6023;47.070;15.126;2022-10-22T16:03:56;10.97;;;9.70;;
11927;SDS011;6023;47.070;15.126;2022-10-22T16:06:50;11.10;;;10.00;;
11927;SDS011;6023;47.070;15.126;2022-10-22T16:09:39;12.37;;;9.77;;
11927;SDS011;6023;47.070;15.126;2022-10-22T16:12:28;10.00;;;7.83;;
11927;SDS011;6023;47.070;15.126;2022-10-22T16:15:16;7.67;;;6.60;;
11927;SDS011;6023;47.070;15.126;2022-10-22T16:18:04;10.60;;;9.50;;
11927;SDS011;6023;47.070;15.126;2022-10-22T16:20:53;15.20;;;13.50;;